createdAt,value
2023-03-07T00:00:05.984Z,15.60
2023-03-07T00:02:32.474Z,16.10
2023-03-07T00:04:58.908Z,16.02
2023-03-07T00:07:25.372Z,15.77
2023-03-07T00:09:53.173Z,15.45
2023-03-07T00:12:21.649Z,15.10
2023-03-07T00:14:48.145Z,15.50
2023-03-07T00:17:14.589Z,16.55
2023-03-07T00:19:44.512Z,15.50
2023-03-07T00:22:14.178Z,15.63
2023-03-07T00:24:41.165Z,15.73
2023-03-07T00:27:08.725Z,16.05
2023-03-07T00:29:35.224Z,16.80
2023-03-07T00:32:01.819Z,17.45
2023-03-07T00:34:28.368Z,17.45
2023-03-07T00:36:54.859Z,18.60
2023-03-07T00:39:21.336Z,16.08
2023-03-07T00:41:47.831Z,15.45
2023-03-07T00:44:14.411Z,17.50
2023-03-07T00:46:40.939Z,17.15
2023-03-07T00:49:08.430Z,17.00
2023-03-07T00:51:35.938Z,15.70
2023-03-07T00:54:03.712Z,16.73
2023-03-07T00:56:30.720Z,16.55
2023-03-07T00:58:57.318Z,16.10
2023-03-07T01:01:25.858Z,16.35
2023-03-07T01:03:53.762Z,16.48
2023-03-07T01:06:26.272Z,16.33
2023-03-07T01:08:56.130Z,16.17
2023-03-07T01:11:23.194Z,16.23
2023-03-07T01:13:49.721Z,16.00
2023-03-07T01:16:19.356Z,15.57
2023-03-07T01:18:49.805Z,15.40
2023-03-07T01:21:20.719Z,15.60
2023-03-07T01:23:48.432Z,15.02
2023-03-07T01:26:19.998Z,14.07
2023-03-07T01:28:47.761Z,13.82
2023-03-07T01:31:14.448Z,13.48
2023-03-07T01:33:41.375Z,15.25
2023-03-07T01:36:40.637Z,13.63
2023-03-07T01:39:17.303Z,13.80
2023-03-07T01:41:57.045Z,13.93
2023-03-07T01:44:28.455Z,13.05
2023-03-07T01:46:58.433Z,13.05
2023-03-07T01:49:40.993Z,11.90
2023-03-07T01:52:12.269Z,12.50
2023-03-07T01:54:48.946Z,13.35
2023-03-07T01:57:25.548Z,13.32
2023-03-07T01:59:56.066Z,12.88
2023-03-07T02:02:24.505Z,13.00
2023-03-07T02:04:57.130Z,13.50
2023-03-07T02:07:28.348Z,12.07
2023-03-07T02:09:56.516Z,12.50
2023-03-07T02:12:23.518Z,12.77
2023-03-07T02:14:51.414Z,13.00
2023-03-07T02:17:18.861Z,12.05
2023-03-07T02:19:54.756Z,13.40
2023-03-07T02:22:21.690Z,12.75
2023-03-07T02:25:00.287Z,12.32
2023-03-07T02:27:31.175Z,13.63
2023-03-07T02:29:57.918Z,13.60
2023-03-07T02:32:24.694Z,13.98
2023-03-07T02:34:51.381Z,12.45
2023-03-07T02:37:29.026Z,14.60
2023-03-07T02:39:59.773Z,13.95
2023-03-07T02:42:30.809Z,13.82
2023-03-07T02:45:10.035Z,13.90
2023-03-07T02:47:38.687Z,14.85
2023-03-07T02:50:06.149Z,15.93
2023-03-07T02:52:33.522Z,13.93
2023-03-07T02:55:00.105Z,13.88
2023-03-07T02:57:31.610Z,15.13
2023-03-07T02:59:59.891Z,13.88
2023-03-07T03:02:26.628Z,15.65
2023-03-07T03:04:53.404Z,15.23
2023-03-07T03:07:22.988Z,14.25
2023-03-07T03:09:49.500Z,14.50
2023-03-07T03:12:16.226Z,14.85
2023-03-07T03:14:43.202Z,14.88
2023-03-07T03:17:10.874Z,15.63
2023-03-07T03:19:37.605Z,16.23
2023-03-07T03:22:04.458Z,16.13
2023-03-07T03:24:42.236Z,16.02
2023-03-07T03:27:11.546Z,16.38
2023-03-07T03:29:38.979Z,16.92
2023-03-07T03:32:06.827Z,15.68
2023-03-07T03:34:33.910Z,15.70
2023-03-07T03:37:00.452Z,15.77
2023-03-07T03:39:29.093Z,14.98
2023-03-07T03:41:58.920Z,15.20
2023-03-07T03:44:26.415Z,14.48
2023-03-07T03:46:53.102Z,15.68
2023-03-07T03:49:22.230Z,15.80
2023-03-07T03:51:50.801Z,14.68
2023-03-07T03:54:18.019Z,15.45
2023-03-07T03:56:44.607Z,14.50
2023-03-07T03:59:11.115Z,13.95
2023-03-07T04:01:37.759Z,13.93
2023-03-07T04:04:05.151Z,14.13
2023-03-07T04:06:34.549Z,14.40
2023-03-07T04:09:03.087Z,14.05
2023-03-07T04:11:29.759Z,14.63
2023-03-07T04:13:56.348Z,14.57
2023-03-07T04:16:23.752Z,14.70
2023-03-07T04:18:50.995Z,14.50
2023-03-07T04:21:18.085Z,13.77
2023-03-07T04:23:44.661Z,13.88
2023-03-07T04:26:12.006Z,13.73
2023-03-07T04:28:44.188Z,11.43
2023-03-07T04:31:20.955Z,13.93
2023-03-07T04:33:47.962Z,12.63
2023-03-07T04:36:18.634Z,13.20
2023-03-07T04:38:46.360Z,13.35
2023-03-07T04:41:15.853Z,12.68
2023-03-07T04:43:43.090Z,13.27
2023-03-07T04:46:11.425Z,12.13
2023-03-07T04:48:38.320Z,12.63
2023-03-07T04:51:05.211Z,12.95
2023-03-07T04:53:32.216Z,13.30
2023-03-07T04:56:00.228Z,12.55
2023-03-07T04:58:28.029Z,11.82
2023-03-07T05:00:56.777Z,13.52
2023-03-07T05:03:26.205Z,12.45
2023-03-07T05:05:53.508Z,12.63
2023-03-07T05:08:20.763Z,12.27
2023-03-07T05:10:47.581Z,11.70
2023-03-07T05:13:14.595Z,12.32
2023-03-07T05:15:41.688Z,12.25
2023-03-07T05:18:08.302Z,11.70
2023-03-07T05:20:34.932Z,11.77
2023-03-07T05:23:01.573Z,11.98
2023-03-07T05:25:28.823Z,11.80
2023-03-07T05:27:55.877Z,11.98
2023-03-07T05:30:22.393Z,11.57
2023-03-07T05:32:49.027Z,12.55
2023-03-07T05:35:16.243Z,13.38
2023-03-07T05:37:44.243Z,12.18
2023-03-07T05:40:12.049Z,11.63
2023-03-07T05:42:42.395Z,11.70
2023-03-07T05:45:10.391Z,10.95
2023-03-07T05:47:38.782Z,11.63
2023-03-07T05:50:09.150Z,11.32
2023-03-07T05:52:36.449Z,11.57
2023-03-07T05:55:04.417Z,10.75
2023-03-07T05:57:31.877Z,11.25
2023-03-07T05:59:58.473Z,10.90
2023-03-07T06:02:25.028Z,12.10
2023-03-07T06:04:51.610Z,10.57
2023-03-07T06:07:18.127Z,13.07
2023-03-07T06:09:45.283Z,11.88
2023-03-07T06:12:12.648Z,10.93
2023-03-07T06:14:39.195Z,12.27
2023-03-07T06:17:06.155Z,12.93
2023-03-07T06:19:34.106Z,13.45
2023-03-07T06:22:00.837Z,14.82
2023-03-07T06:24:30.350Z,9.65
2023-03-07T06:26:57.672Z,10.43
2023-03-07T06:29:25.310Z,12.80
2023-03-07T06:31:52.144Z,13.30
2023-03-07T06:34:18.792Z,10.77
2023-03-07T06:36:48.483Z,10.80
2023-03-07T06:39:20.849Z,10.35
2023-03-07T06:41:50.240Z,10.05
2023-03-07T06:44:26.280Z,9.63
2023-03-07T06:46:53.137Z,9.10
2023-03-07T06:49:21.263Z,9.95
2023-03-07T06:51:48.952Z,9.05
2023-03-07T06:54:16.310Z,9.48
2023-03-07T06:56:45.329Z,10.32
2023-03-07T06:59:15.913Z,8.85
2023-03-07T07:01:42.505Z,10.05
2023-03-07T07:04:11.360Z,9.32
2023-03-07T07:06:40.400Z,9.45
2023-03-07T07:09:06.956Z,8.98
2023-03-07T07:11:37.583Z,9.18
2023-03-07T07:14:05.728Z,9.38
2023-03-07T07:16:33.833Z,9.48
2023-03-07T07:19:00.602Z,9.57
2023-03-07T07:21:27.461Z,9.25
2023-03-07T07:23:57.406Z,9.25
2023-03-07T07:26:26.322Z,9.43
2023-03-07T07:28:53.517Z,8.60
2023-03-07T07:31:20.009Z,8.75
2023-03-07T07:33:46.584Z,8.52
2023-03-07T07:36:14.935Z,8.80
2023-03-07T07:38:41.463Z,9.93
2023-03-07T07:41:08.090Z,9.02
2023-03-07T07:43:34.849Z,9.05
2023-03-07T07:46:14.261Z,9.05
2023-03-07T07:48:40.964Z,9.40
2023-03-07T07:51:07.608Z,8.95
2023-03-07T07:53:36.692Z,8.25
2023-03-07T07:56:03.704Z,8.85
2023-03-07T07:58:30.281Z,8.35
2023-03-07T08:00:56.756Z,9.00
2023-03-07T08:03:23.311Z,9.57
2023-03-07T08:05:50.979Z,8.93
2023-03-07T08:08:18.948Z,9.35
2023-03-07T08:10:48.811Z,9.15
2023-03-07T08:13:17.765Z,8.75
2023-03-07T08:15:44.348Z,9.02
2023-03-07T08:18:11.094Z,9.38
2023-03-07T08:20:38.880Z,8.38
2023-03-07T08:23:05.511Z,8.27
2023-03-07T08:25:32.242Z,9.15
2023-03-07T08:27:59.227Z,8.52
2023-03-07T08:30:27.979Z,8.57
2023-03-07T08:32:55.384Z,7.80
2023-03-07T08:35:23.122Z,8.02
2023-03-07T08:37:54.266Z,8.23
2023-03-07T08:40:21.272Z,8.80
2023-03-07T08:42:47.752Z,7.75
2023-03-07T08:45:15.233Z,8.10
2023-03-07T08:47:41.692Z,7.93
2023-03-07T08:50:08.985Z,7.90
2023-03-07T08:52:35.630Z,8.88
2023-03-07T08:55:02.107Z,8.40
2023-03-07T08:57:28.578Z,8.20
2023-03-07T08:59:55.098Z,8.13
2023-03-07T09:02:21.596Z,8.75
2023-03-07T09:04:48.209Z,8.25
2023-03-07T09:07:14.703Z,8.77
2023-03-07T09:09:41.274Z,8.60
2023-03-07T09:12:07.880Z,8.73
2023-03-07T09:14:34.455Z,8.88
2023-03-07T09:17:00.877Z,8.18
2023-03-07T09:19:27.398Z,8.25
2023-03-07T09:21:53.864Z,8.52
2023-03-07T09:24:20.355Z,8.25
2023-03-07T09:26:46.861Z,7.72
2023-03-07T09:29:13.358Z,8.25
2023-03-07T09:31:41.406Z,7.45
2023-03-07T09:34:07.971Z,7.53
2023-03-07T09:36:34.510Z,8.43
2023-03-07T09:39:00.998Z,8.68
2023-03-07T09:42:02.940Z,7.93
2023-03-07T09:44:32.863Z,7.88
2023-03-07T09:47:25.298Z,7.15
2023-03-07T09:49:53.315Z,9.07
2023-03-07T09:52:27.449Z,7.70
2023-03-07T09:57:34.537Z,7.72
2023-03-07T10:00:18.464Z,8.50
2023-03-07T10:03:00.437Z,8.40
2023-03-07T10:05:29.679Z,8.65
2023-03-07T10:07:56.371Z,7.45
2023-03-07T10:10:33.030Z,8.02
2023-03-07T10:13:08.476Z,8.32
2023-03-07T10:16:00.975Z,8.73
2023-03-07T10:18:31.702Z,8.38
2023-03-07T10:21:27.954Z,8.60
2023-03-07T10:24:23.146Z,9.02
2023-03-07T10:26:59.904Z,8.68
2023-03-07T10:29:33.083Z,9.00
2023-03-07T10:32:18.852Z,7.93
2023-03-07T10:34:46.325Z,8.50
2023-03-07T10:37:18.342Z,8.02
2023-03-07T10:39:56.356Z,8.77
2023-03-07T10:42:26.698Z,8.52
2023-03-07T10:44:53.754Z,8.77
2023-03-07T10:47:25.565Z,8.82
2023-03-07T10:50:02.360Z,8.77
2023-03-07T10:52:40.014Z,8.60
2023-03-07T10:55:29.432Z,9.20
2023-03-07T10:58:22.794Z,9.30
2023-03-07T11:01:08.082Z,9.45
2023-03-07T11:03:53.538Z,9.57
2023-03-07T11:06:27.401Z,10.07
2023-03-07T11:08:53.896Z,9.13
2023-03-07T11:11:26.406Z,9.02
2023-03-07T11:14:15.696Z,9.63
2023-03-07T11:16:56.698Z,9.40
2023-03-07T11:19:32.145Z,10.80
2023-03-07T11:22:00.654Z,9.90
2023-03-07T11:24:36.693Z,9.40
2023-03-07T11:27:04.089Z,8.43
2023-03-07T11:29:33.707Z,9.10
2023-03-07T11:32:13.800Z,9.50
2023-03-07T11:34:48.657Z,10.15
2023-03-07T11:37:40.163Z,9.43
2023-03-07T11:40:28.433Z,9.43
2023-03-07T11:43:05.567Z,9.00
2023-03-07T11:45:54.319Z,10.40
2023-03-07T11:48:47.615Z,8.85
2023-03-07T11:51:35.903Z,11.00
2023-03-07T11:54:28.922Z,10.18
2023-03-07T11:57:03.504Z,9.57
2023-03-07T11:59:56.454Z,9.60
2023-03-07T12:02:49.077Z,9.38
2023-03-07T12:05:44.892Z,9.40
2023-03-07T12:08:45.515Z,9.02
2023-03-07T12:11:28.157Z,9.52
2023-03-07T12:14:27.133Z,8.93
2023-03-07T12:17:17.772Z,9.40
2023-03-07T12:20:16.031Z,9.68
2023-03-07T12:23:12.455Z,8.60
2023-03-07T12:25:46.106Z,9.50
2023-03-07T12:28:18.745Z,10.63
2023-03-07T12:30:58.288Z,11.13
2023-03-07T12:33:56.871Z,11.25
2023-03-07T12:36:55.682Z,10.18
2023-03-07T12:39:29.854Z,9.65
2023-03-07T12:42:15.386Z,9.55
2023-03-07T12:44:55.405Z,9.88
2023-03-07T12:48:03.449Z,10.85
2023-03-07T12:50:50.350Z,9.57
2023-03-07T12:53:49.761Z,8.55
2023-03-07T12:56:31.117Z,7.38
2023-03-07T12:59:04.567Z,9.18
2023-03-07T13:01:43.633Z,8.80
2023-03-07T13:04:43.354Z,9.27
2023-03-07T13:07:21.183Z,9.25
2023-03-07T13:09:50.692Z,9.50
2023-03-07T13:12:20.021Z,8.75
2023-03-07T13:14:48.982Z,8.63
2023-03-07T13:17:30.902Z,7.57
2023-03-07T13:20:15.829Z,8.70
2023-03-07T13:22:42.891Z,10.07
2023-03-07T13:25:35.917Z,8.48
2023-03-07T13:28:04.296Z,8.57
2023-03-07T13:30:34.588Z,8.90
2023-03-07T13:33:24.047Z,9.05
2023-03-07T13:35:58.429Z,9.25
2023-03-07T13:38:44.294Z,8.98
2023-03-07T13:41:12.859Z,9.32
2023-03-07T13:43:45.313Z,9.32
2023-03-07T13:46:23.825Z,8.45
2023-03-07T13:48:53.701Z,8.25
2023-03-07T13:51:20.596Z,8.48
2023-03-07T13:53:50.897Z,8.05
2023-03-07T13:56:17.657Z,7.68
2023-03-07T13:58:58.714Z,8.52
2023-03-07T14:01:32.996Z,8.20
2023-03-07T14:04:11.019Z,7.90
2023-03-07T14:06:41.624Z,8.80
2023-03-07T14:09:20.172Z,9.50
2023-03-07T14:11:58.756Z,8.05
2023-03-07T14:14:49.916Z,8.32
2023-03-07T14:17:38.232Z,7.63
2023-03-07T14:20:42.649Z,7.57
2023-03-07T14:23:31.040Z,7.78
2023-03-07T14:26:15.927Z,7.32
2023-03-07T14:28:49.334Z,8.60
2023-03-07T14:31:27.496Z,6.88
2023-03-07T14:33:54.697Z,8.57
2023-03-07T14:36:23.923Z,8.77
2023-03-07T14:38:54.950Z,8.40
2023-03-07T14:41:55.035Z,10.57
2023-03-07T14:44:31.401Z,9.35
2023-03-07T14:47:15.336Z,8.98
2023-03-07T14:49:59.794Z,8.20
2023-03-07T14:55:03.892Z,9.13
2023-03-07T14:57:37.556Z,9.13
2023-03-07T15:00:07.249Z,8.70
2023-03-07T15:02:33.843Z,8.48
2023-03-07T15:05:00.356Z,9.02
2023-03-07T15:07:26.797Z,8.80
2023-03-07T15:09:53.977Z,9.00
2023-03-07T15:12:25.669Z,8.07
2023-03-07T15:14:53.162Z,9.15
2023-03-07T15:17:35.103Z,7.72
2023-03-07T15:20:14.756Z,8.75
2023-03-07T15:22:42.267Z,8.30
2023-03-07T15:25:25.780Z,7.72
2023-03-07T15:28:01.659Z,7.75
2023-03-07T15:30:32.454Z,8.40
2023-03-07T15:33:19.980Z,8.15
2023-03-07T15:36:11.730Z,8.07
2023-03-07T15:39:23.577Z,8.05
2023-03-07T15:42:04.064Z,7.43
2023-03-07T15:44:30.755Z,8.48
2023-03-07T15:47:00.451Z,7.15
2023-03-07T15:49:37.593Z,8.20
2023-03-07T15:52:04.593Z,7.38
2023-03-07T15:54:51.747Z,7.50
2023-03-07T15:57:24.457Z,7.90
2023-03-07T16:00:00.119Z,7.30
2023-03-07T16:02:32.606Z,7.45
2023-03-07T16:05:00.830Z,7.75
2023-03-07T16:07:27.745Z,6.88
2023-03-07T16:09:54.382Z,7.55
2023-03-07T16:12:22.927Z,7.70
2023-03-07T16:14:51.543Z,8.07
2023-03-07T16:17:37.142Z,8.68
2023-03-07T16:20:04.840Z,9.05
2023-03-07T16:22:32.096Z,9.07
2023-03-07T16:24:58.546Z,9.60
2023-03-07T16:27:27.815Z,10.85
2023-03-07T16:29:54.495Z,8.90
2023-03-07T16:32:22.701Z,8.98
2023-03-07T16:34:49.536Z,9.68
2023-03-07T16:37:16.249Z,8.90
2023-03-07T16:39:42.891Z,8.15
2023-03-07T16:42:22.860Z,8.23
2023-03-07T16:44:50.979Z,7.93
2023-03-07T16:47:17.956Z,7.55
2023-03-07T16:49:46.575Z,7.07
2023-03-07T16:52:13.845Z,8.93
2023-03-07T16:54:40.591Z,8.65
2023-03-07T16:57:14.585Z,7.07
2023-03-07T16:59:45.419Z,6.65
2023-03-07T17:02:16.143Z,7.78
2023-03-07T17:04:44.242Z,6.80
2023-03-07T17:07:23.502Z,6.57
2023-03-07T17:09:50.543Z,7.00
2023-03-07T17:12:20.040Z,6.78
2023-03-07T17:14:46.592Z,7.65
2023-03-07T17:17:30.209Z,6.47
2023-03-07T17:19:56.836Z,6.70
2023-03-07T17:22:23.357Z,6.47
2023-03-07T17:24:49.928Z,6.88
2023-03-07T17:27:17.536Z,5.80
2023-03-07T17:29:47.988Z,7.30
2023-03-07T17:32:14.483Z,7.45
2023-03-07T17:34:41.024Z,7.20
2023-03-07T17:37:08.121Z,7.40
2023-03-07T17:39:35.070Z,6.28
2023-03-07T17:42:02.234Z,6.70
2023-03-07T17:44:29.165Z,7.28
2023-03-07T17:46:56.374Z,6.60
2023-03-07T17:49:23.885Z,7.15
2023-03-07T17:51:51.975Z,7.18
2023-03-07T17:54:18.636Z,7.25
2023-03-07T17:56:45.471Z,7.60
2023-03-07T17:59:12.021Z,7.90
2023-03-07T18:01:38.490Z,6.95
2023-03-07T18:04:06.237Z,6.88
2023-03-07T18:06:34.019Z,7.30
2023-03-07T18:09:01.559Z,6.97
2023-03-07T18:11:28.258Z,7.60
2023-03-07T18:13:54.721Z,7.70
2023-03-07T18:16:21.287Z,7.45
2023-03-07T18:18:58.693Z,7.05
2023-03-07T18:21:26.478Z,8.50
2023-03-07T18:23:53.771Z,7.43
2023-03-07T18:26:21.086Z,7.90
2023-03-07T18:28:50.145Z,6.60
2023-03-07T18:31:22.857Z,7.03
2023-03-07T18:33:52.266Z,7.22
2023-03-07T18:36:21.297Z,7.05
2023-03-07T18:38:48.520Z,7.03
2023-03-07T18:41:17.697Z,7.07
2023-03-07T18:43:44.200Z,7.53
2023-03-07T18:46:13.536Z,7.28
2023-03-07T18:48:40.468Z,7.97
2023-03-07T18:51:10.262Z,8.07
2023-03-07T18:53:38.892Z,7.28
2023-03-07T18:56:08.602Z,7.18
2023-03-07T18:58:35.465Z,7.85
2023-03-07T19:01:24.114Z,8.70
2023-03-07T19:03:52.443Z,8.40
2023-03-07T19:06:21.531Z,8.05
2023-03-07T19:08:47.972Z,7.40
2023-03-07T19:11:15.407Z,7.82
2023-03-07T19:13:43.082Z,13.35
2023-03-07T19:16:15.720Z,7.82
2023-03-07T19:18:43.364Z,7.88
2023-03-07T19:21:15.560Z,8.50
2023-03-07T19:23:42.075Z,8.85
2023-03-07T19:26:12.039Z,7.00
2023-03-07T19:28:39.137Z,8.13
2023-03-07T19:31:17.330Z,7.95
2023-03-07T19:33:45.121Z,7.82
2023-03-07T19:36:16.163Z,8.10
2023-03-07T19:38:43.429Z,7.43
2023-03-07T19:41:13.541Z,7.45
2023-03-07T19:43:40.386Z,8.00
2023-03-07T19:46:09.464Z,7.65
2023-03-07T19:48:36.524Z,7.60
2023-03-07T19:51:03.874Z,8.13
2023-03-07T19:53:30.748Z,7.63
2023-03-07T19:55:57.259Z,8.30
2023-03-07T19:58:23.683Z,8.48
2023-03-07T20:00:50.179Z,8.77
2023-03-07T20:03:19.273Z,7.78
2023-03-07T20:05:50.738Z,7.53
2023-03-07T20:08:17.279Z,7.80
2023-03-07T20:10:44.725Z,7.45
2023-03-07T20:13:13.471Z,7.60
2023-03-07T20:15:40.023Z,8.52
2023-03-07T20:18:06.540Z,7.70
2023-03-07T20:20:36.148Z,7.75
2023-03-07T20:23:02.698Z,8.30
2023-03-07T20:25:30.258Z,7.50
2023-03-07T20:27:57.809Z,7.03
2023-03-07T20:30:24.591Z,7.63
2023-03-07T20:32:51.088Z,7.93
2023-03-07T20:35:17.935Z,8.25
2023-03-07T20:37:44.423Z,7.75
2023-03-07T20:40:11.695Z,6.70
2023-03-07T20:42:38.233Z,7.75
2023-03-07T20:45:05.213Z,7.53
2023-03-07T20:47:36.089Z,8.27
2023-03-07T20:50:02.568Z,7.78
2023-03-07T20:52:29.056Z,8.20
2023-03-07T20:54:55.540Z,8.27
2023-03-07T20:57:22.016Z,7.65
2023-03-07T20:59:48.981Z,6.97
2023-03-07T21:02:15.455Z,8.25
2023-03-07T21:04:41.953Z,7.50
2023-03-07T21:07:08.670Z,7.70
2023-03-07T21:09:35.177Z,7.35
2023-03-07T21:12:01.702Z,7.28
2023-03-07T21:14:28.228Z,7.18
2023-03-07T21:16:54.755Z,7.65
2023-03-07T21:19:21.264Z,7.70
2023-03-07T21:21:47.803Z,7.78
2023-03-07T21:24:15.482Z,8.07
2023-03-07T21:26:42.454Z,8.48
2023-03-07T21:29:10.645Z,7.80
2023-03-07T21:31:37.530Z,8.35
2023-03-07T21:34:11.118Z,7.95
2023-03-07T21:36:37.647Z,8.85
2023-03-07T21:39:07.663Z,7.50
2023-03-07T21:41:34.767Z,8.35
2023-03-07T21:44:01.732Z,8.52
2023-03-07T21:46:28.613Z,8.32
2023-03-07T21:48:58.671Z,7.47
2023-03-07T21:51:25.271Z,7.57
2023-03-07T21:53:51.825Z,7.78
2023-03-07T21:56:18.399Z,7.88
2023-03-07T21:58:49.426Z,8.73
2023-03-07T22:01:19.194Z,7.95
2023-03-07T22:03:47.335Z,6.97
2023-03-07T22:06:15.532Z,8.02
2023-03-07T22:08:42.559Z,7.03
2023-03-07T22:11:10.865Z,7.75
2023-03-07T22:13:39.632Z,8.05
2023-03-07T22:16:09.856Z,7.57
2023-03-07T22:18:36.796Z,7.22
2023-03-07T22:21:13.821Z,7.45
2023-03-07T22:23:41.361Z,7.57
2023-03-07T22:26:09.658Z,7.30
2023-03-07T22:28:37.224Z,7.88
2023-03-07T22:31:09.261Z,7.20
2023-03-07T22:33:35.973Z,8.30
2023-03-07T22:36:06.050Z,7.72
2023-03-07T22:38:32.723Z,6.97
2023-03-07T22:41:05.027Z,7.63
2023-03-07T22:43:33.492Z,8.25
2023-03-07T22:46:00.410Z,7.45
2023-03-07T22:48:27.776Z,7.45
2023-03-07T22:50:54.595Z,7.63
2023-03-07T22:53:21.534Z,8.13
2023-03-07T22:55:48.530Z,7.35
2023-03-07T22:58:15.031Z,7.30
2023-03-07T23:00:42.989Z,8.27
2023-03-07T23:03:10.207Z,7.38
2023-03-07T23:05:36.827Z,8.43
2023-03-07T23:08:03.996Z,8.35
2023-03-07T23:10:31.785Z,8.40
2023-03-07T23:12:58.286Z,8.02
2023-03-07T23:15:25.155Z,7.68
2023-03-07T23:17:51.856Z,7.60
2023-03-07T23:20:19.660Z,8.70
2023-03-07T23:22:46.756Z,7.45
2023-03-07T23:25:15.036Z,7.40
2023-03-07T23:27:42.045Z,7.80
2023-03-07T23:30:09.688Z,7.57
2023-03-07T23:32:36.541Z,8.20
2023-03-07T23:35:03.944Z,8.38
2023-03-07T23:37:30.526Z,8.90
2023-03-07T23:39:58.433Z,7.80
2023-03-07T23:42:24.971Z,8.15
2023-03-07T23:44:51.537Z,7.63
2023-03-07T23:47:18.018Z,8.25
2023-03-07T23:49:44.573Z,8.55
2023-03-07T23:52:11.067Z,8.07
2023-03-07T23:54:37.593Z,7.60
2023-03-07T23:57:04.091Z,7.70
2023-03-07T23:59:30.648Z,7.95
